createdAt,value
2022-12-19T00:05:37.448Z,1026.19
2022-12-19T00:34:19.184Z,1025.87
2022-12-19T01:03:13.415Z,1026.02
2022-12-19T01:31:56.050Z,1025.71
2022-12-19T02:00:41.830Z,1025.73
2022-12-19T02:29:23.424Z,1025.47
2022-12-19T02:58:12.836Z,1025.51
2022-12-19T03:27:00.385Z,1025.32
2022-12-19T03:55:52.318Z,1025.23
2022-12-19T04:24:38.938Z,1025.25
2022-12-19T04:53:24.971Z,1025.27
2022-12-19T05:22:09.874Z,1024.99
2022-12-19T05:50:59.683Z,1025.03
2022-12-19T06:20:00.581Z,1024.92
2022-12-19T06:48:30.953Z,1024.78
2022-12-19T07:17:30.524Z,1025.12
2022-12-19T07:45:51.088Z,1025.31
2022-12-19T08:14:12.624Z,1025.11
2022-12-19T08:43:01.331Z,1025.03
2022-12-19T09:11:35.925Z,1024.94
2022-12-19T09:40:04.411Z,1024.62
2022-12-19T10:08:46.305Z,1024.47
2022-12-19T10:37:25.515Z,1024.15
2022-12-19T11:05:17.287Z,1023.83
2022-12-19T11:33:31.877Z,1023.67
2022-12-19T12:04:48.185Z,1023.07
2022-12-19T12:35:27.940Z,1023
2022-12-19T13:30:16.907Z,1022.91
2022-12-19T13:58:42.358Z,1022.99
2022-12-19T14:28:22.807Z,1022.94
2022-12-19T14:56:12.137Z,1022.69
2022-12-19T15:23:57.059Z,1022.55
2022-12-19T15:52:26.336Z,1022.55
2022-12-19T16:21:02.864Z,1022.3
2022-12-19T16:49:26.031Z,1022.63
2022-12-19T17:18:10.787Z,1023.02
2022-12-19T17:46:51.149Z,1022.69
2022-12-19T18:15:32.567Z,1022.48
2022-12-19T18:44:07.601Z,1022.29
2022-12-19T19:12:43.577Z,1022.36
2022-12-19T19:41:25.626Z,1022.39
2022-12-19T20:10:03.727Z,1022.18
2022-12-19T20:38:51.477Z,1022.28
2022-12-19T21:07:40.933Z,1022.18
2022-12-19T21:36:24.589Z,1022.17
2022-12-19T22:04:53.453Z,1022.3
2022-12-19T22:33:31.052Z,1022.12
2022-12-19T23:02:13.653Z,1022.19
2022-12-19T23:30:44.806Z,1022.28
2022-12-19T23:59:16.305Z,1021.88
